createdAt,value
2023-03-01T00:01:39.663Z,7.95
2023-03-01T00:04:43.391Z,7.96
2023-03-01T00:07:47.220Z,8.25
2023-03-01T00:10:52.492Z,8.19
2023-03-01T00:13:58.747Z,8.24
2023-03-01T00:17:03.276Z,8.24
2023-03-01T00:20:09.526Z,8.36
2023-03-01T00:23:13.387Z,8.30
2023-03-01T00:26:19.494Z,8.35
2023-03-01T00:29:23.341Z,8.25
2023-03-01T00:32:27.127Z,8.27
2023-03-01T00:35:30.944Z,8.34
2023-03-01T00:38:37.731Z,8.18
2023-03-01T00:41:43.121Z,8.31
2023-03-01T00:44:46.676Z,8.14
2023-03-01T00:47:50.998Z,8.23
2023-03-01T00:50:54.619Z,8.18
2023-03-01T00:54:00.400Z,8.17
2023-03-01T00:57:05.740Z,8.27
2023-03-01T01:00:12.596Z,8.13
2023-03-01T01:03:16.354Z,8.21
2023-03-01T01:06:22.090Z,8.02
2023-03-01T01:09:25.822Z,8.11
2023-03-01T01:12:32.046Z,8.10
2023-03-01T01:15:36.856Z,8.14
2023-03-01T01:18:40.672Z,8.24
2023-03-01T01:21:46.166Z,8.11
2023-03-01T01:24:49.766Z,8.45
2023-03-01T01:27:55.110Z,8.28
2023-03-01T01:30:58.915Z,7.97
2023-03-01T01:34:03.556Z,7.96
2023-03-01T01:37:09.036Z,7.91
2023-03-01T01:40:13.955Z,8.30
2023-03-01T01:43:23.904Z,8.48
2023-03-01T01:46:33.193Z,8.78
2023-03-01T01:49:40.525Z,8.32
2023-03-01T01:52:44.307Z,8.48
2023-03-01T01:55:51.487Z,8.53
2023-03-01T01:58:57.895Z,8.17
2023-03-01T02:02:04.102Z,8.28
2023-03-01T02:05:13.987Z,8.28
2023-03-01T02:08:21.233Z,8.33
2023-03-01T02:11:25.130Z,8.26
2023-03-01T02:14:30.165Z,8.31
2023-03-01T02:17:34.969Z,8.25
2023-03-01T02:20:47.904Z,8.02
2023-03-01T02:23:51.556Z,7.99
2023-03-01T02:26:57.750Z,7.87
2023-03-01T02:30:02.746Z,7.86
2023-03-01T02:33:05.937Z,8.17
2023-03-01T02:36:14.468Z,8.18
2023-03-01T02:39:22.094Z,8.09
2023-03-01T02:42:31.399Z,8.31
2023-03-01T02:45:36.509Z,8.15
2023-03-01T02:48:46.106Z,8.37
2023-03-01T02:52:03.965Z,8.35
2023-03-01T02:55:10.946Z,8.25
2023-03-01T02:58:15.086Z,8.26
2023-03-01T03:01:20.772Z,8.09
2023-03-01T03:04:24.705Z,7.93
2023-03-01T03:07:28.931Z,7.62
2023-03-01T03:10:34.794Z,7.75
2023-03-01T03:13:42.803Z,7.94
2023-03-01T03:16:50.720Z,7.76
2023-03-01T03:19:54.668Z,7.74
2023-03-01T03:23:00.597Z,7.65
2023-03-01T03:26:05.898Z,7.98
2023-03-01T03:29:09.657Z,7.93
2023-03-01T03:32:14.752Z,8.19
2023-03-01T03:35:18.469Z,8.06
2023-03-01T03:38:23.229Z,8.05
2023-03-01T03:41:26.945Z,8.29
2023-03-01T03:44:30.436Z,8.49
2023-03-01T03:47:35.438Z,8.63
2023-03-01T03:50:39.473Z,8.70
2023-03-01T03:53:44.074Z,8.58
2023-03-01T04:00:13.950Z,8.77
2023-03-01T04:03:22.256Z,8.61
2023-03-01T04:06:26.051Z,8.49
2023-03-01T04:09:31.439Z,8.49
2023-03-01T04:12:36.089Z,8.53
2023-03-01T04:15:40.001Z,8.37
2023-03-01T04:18:45.260Z,8.38
2023-03-01T04:21:48.876Z,8.55
2023-03-01T04:24:52.558Z,8.34
2023-03-01T04:27:56.390Z,8.18
2023-03-01T04:31:01.748Z,8.10
2023-03-01T04:34:06.926Z,8.14
2023-03-01T04:37:10.437Z,8.28
2023-03-01T04:40:17.599Z,8.10
2023-03-01T04:43:21.173Z,7.94
2023-03-01T04:46:24.881Z,8.22
2023-03-01T04:49:29.965Z,8.38
2023-03-01T04:52:33.812Z,8.54
2023-03-01T04:55:38.463Z,8.72
2023-03-01T04:58:42.171Z,8.06
2023-03-01T05:01:45.772Z,7.82
2023-03-01T05:04:50.728Z,7.87
2023-03-01T05:07:56.346Z,8.14
2023-03-01T05:10:59.914Z,8.18
2023-03-01T05:14:03.940Z,8.11
2023-03-01T05:17:07.445Z,8.02
2023-03-01T05:20:13.846Z,8.27
2023-03-01T05:23:17.328Z,8.35
2023-03-01T05:26:39.659Z,8.49
2023-03-01T05:29:43.681Z,8.44
2023-03-01T05:32:49.155Z,8.26
2023-03-01T05:35:55.169Z,8.49
2023-03-01T05:38:58.844Z,8.25
2023-03-01T05:42:03.444Z,8.23
2023-03-01T05:45:10.815Z,8.51
2023-03-01T05:48:15.128Z,8.59
2023-03-01T05:51:20.161Z,8.49
2023-03-01T05:54:24.399Z,8.17
2023-03-01T05:57:30.274Z,8.34
2023-03-01T06:00:34.726Z,8.42
2023-03-01T06:03:38.484Z,8.31
2023-03-01T06:06:43.690Z,8.48
2023-03-01T06:09:47.470Z,8.66
2023-03-01T06:12:51.271Z,8.81
2023-03-01T06:15:55.093Z,8.47
2023-03-01T06:18:59.997Z,8.42
2023-03-01T06:22:05.211Z,8.34
2023-03-01T06:25:10.263Z,8.67
2023-03-01T06:28:13.983Z,8.31
2023-03-01T06:31:17.771Z,8.42
2023-03-01T06:34:23.013Z,8.39
2023-03-01T06:37:28.416Z,7.97
2023-03-01T06:40:33.403Z,8.21
2023-03-01T06:43:37.320Z,8.30
2023-03-01T06:46:41.748Z,8.02
2023-03-01T06:49:45.437Z,8.28
2023-03-01T06:52:50.621Z,8.17
2023-03-01T06:55:57.316Z,8.41
2023-03-01T06:59:01.160Z,8.62
2023-03-01T07:02:04.955Z,8.57
2023-03-01T07:05:09.322Z,8.22
2023-03-01T07:08:14.555Z,8.57
2023-03-01T07:11:18.736Z,8.26
2023-03-01T07:14:22.531Z,8.33
2023-03-01T07:17:26.275Z,8.35
2023-03-01T07:20:30.290Z,8.35
2023-03-01T07:23:35.665Z,8.30
2023-03-01T07:26:39.624Z,8.36
2023-03-01T07:29:44.106Z,8.43
2023-03-01T07:32:48.025Z,8.56
2023-03-01T07:35:58.999Z,8.83
2023-03-01T07:39:04.540Z,8.87
2023-03-01T07:42:08.301Z,8.69
2023-03-01T07:45:14.646Z,8.90
2023-03-01T07:48:18.424Z,9.13
2023-03-01T07:51:22.335Z,9.27
2023-03-01T07:54:27.698Z,9.49
2023-03-01T07:57:31.404Z,9.60
2023-03-01T08:00:35.256Z,9.29
2023-03-01T08:03:39.700Z,9.19
2023-03-01T08:06:43.458Z,9.22
2023-03-01T08:09:48.702Z,8.97
2023-03-01T08:12:55.066Z,9.13
2023-03-01T08:16:04.434Z,9.32
2023-03-01T08:19:08.824Z,9.47
2023-03-01T08:22:12.705Z,9.23
2023-03-01T08:25:18.031Z,9.02
2023-03-01T08:28:22.227Z,8.89
2023-03-01T08:31:28.630Z,8.73
2023-03-01T08:34:32.928Z,9.00
2023-03-01T08:37:36.780Z,8.90
2023-03-01T08:40:42.100Z,9.09
2023-03-01T08:43:45.943Z,9.10
2023-03-01T08:46:51.141Z,9.18
2023-03-01T08:49:54.802Z,9.04
2023-03-01T08:52:58.603Z,9.08
2023-03-01T08:56:04.883Z,8.97
2023-03-01T08:59:09.139Z,8.98
2023-03-01T09:02:16.040Z,9.27
2023-03-01T09:05:20.418Z,9.53
2023-03-01T09:08:24.312Z,9.26
2023-03-01T09:11:31.231Z,8.96
2023-03-01T09:14:35.072Z,8.80
2023-03-01T09:17:39.010Z,9.29
2023-03-01T09:20:43.085Z,9.43
2023-03-01T09:23:48.290Z,9.68
2023-03-01T09:26:57.056Z,9.55
2023-03-01T09:30:00.827Z,9.59
2023-03-01T09:33:04.625Z,9.50
2023-03-01T09:36:12.506Z,9.59
2023-03-01T09:39:16.290Z,9.77
2023-03-01T09:42:21.752Z,9.75
2023-03-01T09:45:33.197Z,9.42
2023-03-01T09:48:45.553Z,9.59
2023-03-01T09:51:58.302Z,9.45
2023-03-01T09:55:02.062Z,9.47
2023-03-01T09:58:31.884Z,9.11
2023-03-01T10:01:41.146Z,9.24
2023-03-01T10:04:50.113Z,9.50
2023-03-01T10:08:04.405Z,9.17
2023-03-01T10:11:24.917Z,9.16
2023-03-01T10:14:36.769Z,9.25
2023-03-01T10:17:45.996Z,9.43
2023-03-01T10:20:55.509Z,9.43
2023-03-01T10:24:10.474Z,9.51
2023-03-01T10:27:21.167Z,9.60
2023-03-01T10:30:39.841Z,9.58
2023-03-01T10:33:43.915Z,9.76
2023-03-01T10:36:51.578Z,9.63
2023-03-01T10:40:01.214Z,9.53
2023-03-01T10:43:07.491Z,9.40
2023-03-01T10:46:25.623Z,9.10
2023-03-01T10:49:29.474Z,9.13
2023-03-01T10:52:37.015Z,9.19
2023-03-01T10:55:42.820Z,9.19
2023-03-01T10:59:01.218Z,9.34
2023-03-01T11:02:24.892Z,9.18
2023-03-01T11:05:31.652Z,9.12
2023-03-01T11:08:39.450Z,9.05
2023-03-01T11:11:43.238Z,9.45
2023-03-01T11:14:50.561Z,9.50
2023-03-01T11:18:05.705Z,9.40
2023-03-01T11:21:17.956Z,9.00
2023-03-01T11:24:26.357Z,9.02
2023-03-01T11:27:33.755Z,9.08
2023-03-01T11:30:43.801Z,9.17
2023-03-01T11:33:52.634Z,9.52
2023-03-01T11:37:01.514Z,9.63
2023-03-01T11:40:15.461Z,9.44
2023-03-01T11:43:25.875Z,9.52
2023-03-01T11:46:54.577Z,9.40
2023-03-01T11:50:14.779Z,9.31
2023-03-01T11:53:46.766Z,9.25
2023-03-01T11:56:57.495Z,9.28
2023-03-01T12:00:09.835Z,9.23
2023-03-01T12:03:34.073Z,9.03
2023-03-01T12:06:56.779Z,9.23
2023-03-01T12:10:23.281Z,9.47
2023-03-01T12:13:49.865Z,9.54
2023-03-01T12:17:09.203Z,9.74
2023-03-01T12:20:33.995Z,9.93
2023-03-01T12:24:06.993Z,10.00
2023-03-01T12:27:39.323Z,10.07
2023-03-01T12:30:58.343Z,9.56
2023-03-01T12:34:10.859Z,9.86
2023-03-01T12:37:28.153Z,9.45
2023-03-01T12:41:04.642Z,9.32
2023-03-01T12:44:18.105Z,9.42
2023-03-01T12:47:36.963Z,9.50
2023-03-01T12:50:45.006Z,9.20
2023-03-01T12:53:51.294Z,8.97
2023-03-01T12:56:57.949Z,9.54
2023-03-01T13:00:20.311Z,9.54
2023-03-01T13:03:31.332Z,9.52
2023-03-01T13:06:43.752Z,9.54
2023-03-01T13:09:56.357Z,9.56
2023-03-01T13:13:21.215Z,9.67
2023-03-01T13:16:44.067Z,9.49
2023-03-01T13:19:59.133Z,9.46
2023-03-01T13:23:08.309Z,9.56
2023-03-01T13:26:18.382Z,9.63
2023-03-01T13:29:29.872Z,9.21
2023-03-01T13:32:43.705Z,9.04
2023-03-01T13:35:48.459Z,9.30
2023-03-01T13:38:59.438Z,9.35
2023-03-01T13:42:03.356Z,9.55
2023-03-01T13:45:22.742Z,9.68
2023-03-01T13:48:30.285Z,9.76
2023-03-01T13:51:34.894Z,9.79
2023-03-01T13:54:41.512Z,9.93
2023-03-01T13:57:49.344Z,9.47
2023-03-01T14:01:01.043Z,9.29
2023-03-01T14:04:23.334Z,9.26
2023-03-01T14:07:30.659Z,9.13
2023-03-01T14:10:43.197Z,9.13
2023-03-01T14:14:01.432Z,9.26
2023-03-01T14:17:23.648Z,9.29
2023-03-01T14:20:30.080Z,9.46
2023-03-01T14:23:36.561Z,9.48
2023-03-01T14:26:40.526Z,9.59
2023-03-01T14:29:44.773Z,9.59
2023-03-01T14:33:16.539Z,9.45
2023-03-01T14:36:29.475Z,9.58
2023-03-01T14:39:34.961Z,9.80
2023-03-01T14:42:39.933Z,9.59
2023-03-01T14:45:51.235Z,9.67
2023-03-01T14:49:03.764Z,9.59
2023-03-01T14:52:18.727Z,9.60
2023-03-01T14:55:27.148Z,9.40
2023-03-01T14:58:31.113Z,9.51
2023-03-01T15:01:35.107Z,9.52
2023-03-01T15:04:40.631Z,9.29
2023-03-01T15:07:50.188Z,9.41
2023-03-01T15:11:02.906Z,9.59
2023-03-01T15:14:47.364Z,9.59
2023-03-01T15:17:57.851Z,9.54
2023-03-01T15:21:11.807Z,9.75
2023-03-01T15:24:22.108Z,9.65
2023-03-01T15:27:28.182Z,9.57
2023-03-01T15:30:38.961Z,9.51
2023-03-01T15:33:48.425Z,9.39
2023-03-01T15:36:54.797Z,9.52
2023-03-01T15:40:00.031Z,9.57
2023-03-01T15:43:05.489Z,9.40
2023-03-01T15:46:19.717Z,9.48
2023-03-01T15:49:33.386Z,9.52
2023-03-01T15:52:43.777Z,9.63
2023-03-01T15:55:50.796Z,9.26
2023-03-01T15:58:54.536Z,9.14
2023-03-01T16:01:58.335Z,9.37
2023-03-01T16:05:02.141Z,9.30
2023-03-01T16:08:08.664Z,9.25
2023-03-01T16:11:18.262Z,9.06
2023-03-01T16:14:22.518Z,9.30
2023-03-01T16:17:27.094Z,9.17
2023-03-01T16:20:33.996Z,9.17
2023-03-01T16:23:39.635Z,9.03
2023-03-01T16:26:44.123Z,9.25
2023-03-01T16:29:47.825Z,8.99
2023-03-01T16:32:52.474Z,9.18
2023-03-01T16:35:56.275Z,9.21
2023-03-01T16:39:04.303Z,8.99
2023-03-01T16:42:08.091Z,9.19
2023-03-01T16:45:22.763Z,9.21
2023-03-01T16:48:27.990Z,9.07
2023-03-01T16:51:35.858Z,9.05
2023-03-01T16:54:41.860Z,9.23
2023-03-01T16:57:45.750Z,9.28
2023-03-01T17:00:49.537Z,9.22
2023-03-01T17:03:53.364Z,9.25
2023-03-01T17:06:57.122Z,9.34
2023-03-01T17:10:13.685Z,8.91
2023-03-01T17:13:17.698Z,8.90
2023-03-01T17:16:23.061Z,9.10
2023-03-01T17:19:26.908Z,9.10
2023-03-01T17:22:30.716Z,8.87
2023-03-01T17:25:35.910Z,9.11
2023-03-01T17:28:39.892Z,9.17
2023-03-01T17:31:43.671Z,8.78
2023-03-01T17:34:47.952Z,8.72
2023-03-01T17:37:51.774Z,8.71
2023-03-01T17:40:57.031Z,8.82
2023-03-01T17:44:00.859Z,8.68
2023-03-01T17:47:05.861Z,8.87
2023-03-01T17:50:10.693Z,8.78
2023-03-01T17:53:15.001Z,8.88
2023-03-01T17:56:20.211Z,8.85
2023-03-01T17:59:24.054Z,8.73
2023-03-01T18:02:27.997Z,8.80
2023-03-01T18:05:34.084Z,8.91
2023-03-01T18:08:37.764Z,8.97
2023-03-01T18:11:54.051Z,8.71
2023-03-01T18:15:01.024Z,8.79
2023-03-01T18:18:05.364Z,8.96
2023-03-01T18:21:09.991Z,8.91
2023-03-01T18:24:13.810Z,8.82
2023-03-01T18:27:19.251Z,8.97
2023-03-01T18:30:23.260Z,8.95
2023-03-01T18:33:27.525Z,9.03
2023-03-01T18:36:33.852Z,9.00
2023-03-01T18:39:37.885Z,8.99
2023-03-01T18:42:43.177Z,8.85
2023-03-01T18:45:46.976Z,8.98
2023-03-01T18:48:51.122Z,8.71
2023-03-01T18:51:55.712Z,8.61
2023-03-01T18:54:59.682Z,8.68
2023-03-01T18:58:05.244Z,8.57
2023-03-01T19:01:15.865Z,8.78
2023-03-01T19:04:19.909Z,8.69
2023-03-01T19:07:24.011Z,8.57
2023-03-01T19:10:28.562Z,8.35
2023-03-01T19:13:35.686Z,8.41
2023-03-01T19:16:39.565Z,8.36
2023-03-01T19:19:43.372Z,8.28
2023-03-01T19:22:47.212Z,8.68
2023-03-01T19:25:51.173Z,8.37
2023-03-01T19:28:56.990Z,8.40
2023-03-01T19:32:00.688Z,8.47
2023-03-01T19:35:04.523Z,8.48
2023-03-01T19:38:08.365Z,8.34
2023-03-01T19:41:15.028Z,8.26
2023-03-01T19:44:25.077Z,8.16
2023-03-01T19:47:28.963Z,8.52
2023-03-01T19:50:32.923Z,8.25
2023-03-01T19:53:36.846Z,8.08
2023-03-01T19:56:41.044Z,8.22
2023-03-01T19:59:46.266Z,8.09
2023-03-01T20:02:50.274Z,7.72
2023-03-01T20:05:54.129Z,7.88
2023-03-01T20:08:58.720Z,7.87
2023-03-01T20:12:03.396Z,8.12
2023-03-01T20:15:10.047Z,8.22
2023-03-01T20:18:15.279Z,7.79
2023-03-01T20:21:24.384Z,7.87
2023-03-01T20:24:28.414Z,7.81
2023-03-01T20:27:32.574Z,8.18
2023-03-01T20:30:39.017Z,7.94
2023-03-01T20:33:42.922Z,7.91
2023-03-01T20:36:46.747Z,7.97
2023-03-01T20:39:50.584Z,7.70
2023-03-01T20:42:55.121Z,7.73
2023-03-01T20:46:00.812Z,7.58
2023-03-01T20:49:05.537Z,7.72
2023-03-01T20:52:09.350Z,7.85
2023-03-01T20:55:13.214Z,7.80
2023-03-01T20:58:16.889Z,7.88
2023-03-01T21:01:24.798Z,7.96
2023-03-01T21:04:28.526Z,7.88
2023-03-01T21:07:32.230Z,7.86
2023-03-01T21:10:35.939Z,7.88
2023-03-01T21:13:39.721Z,7.89
2023-03-01T21:16:46.978Z,7.98
2023-03-01T21:19:50.851Z,7.93
2023-03-01T21:22:54.630Z,7.91
2023-03-01T21:26:03.583Z,7.79
2023-03-01T21:29:07.318Z,7.80
2023-03-01T21:32:13.663Z,8.11
2023-03-01T21:35:17.568Z,7.89
2023-03-01T21:38:21.259Z,7.98
2023-03-01T21:41:28.348Z,8.19
2023-03-01T21:44:33.642Z,7.98
2023-03-01T21:47:39.683Z,8.01
2023-03-01T21:50:43.447Z,7.73
2023-03-01T21:53:48.041Z,7.65
2023-03-01T21:56:52.009Z,7.66
2023-03-01T21:59:55.907Z,7.90
2023-03-01T22:03:01.150Z,7.92
2023-03-01T22:06:05.160Z,7.72
2023-03-01T22:09:11.295Z,7.79
2023-03-01T22:12:15.068Z,7.82
2023-03-01T22:15:18.964Z,7.88
2023-03-01T22:18:24.215Z,7.87
2023-03-01T22:21:28.505Z,8.01
2023-03-01T22:24:32.325Z,7.93
2023-03-01T22:27:37.499Z,7.78
2023-03-01T22:30:41.386Z,7.65
2023-03-01T22:33:46.765Z,7.50
2023-03-01T22:36:50.748Z,7.73
2023-03-01T22:39:54.913Z,7.82
2023-03-01T22:42:58.657Z,7.90
2023-03-01T22:46:11.290Z,8.04
2023-03-01T22:49:17.278Z,7.94
2023-03-01T22:52:21.057Z,7.73
2023-03-01T22:55:24.815Z,7.85
2023-03-01T22:58:28.688Z,7.89
2023-03-01T23:01:32.754Z,7.68
2023-03-01T23:04:37.814Z,7.48
2023-03-01T23:07:41.799Z,7.81
2023-03-01T23:10:45.580Z,7.71
2023-03-01T23:13:49.719Z,7.46
2023-03-01T23:16:54.257Z,7.44
2023-03-01T23:19:59.696Z,7.59
2023-03-01T23:23:03.565Z,7.48
2023-03-01T23:26:07.933Z,7.59
2023-03-01T23:29:11.756Z,7.31
2023-03-01T23:32:15.567Z,7.58
2023-03-01T23:35:20.903Z,7.45
2023-03-01T23:38:24.702Z,7.50
2023-03-01T23:41:31.341Z,7.79
2023-03-01T23:44:35.061Z,7.54
2023-03-01T23:47:38.838Z,7.59
2023-03-01T23:50:44.038Z,7.36
2023-03-01T23:53:54.818Z,7.59
2023-03-01T23:56:58.706Z,7.58
